Time;durP1;ratioP1;P1;durP2;ratioP2;P2;SDS_P1;SDS_P2;PMS_P1;PMS_P2;Temp;Humidity;BMP_temperature;BMP_pressure;BME280_temperature;BME280_humidity;BME280_pressure;Samples;Min_cycle;Max_cycle;Signal;HPM_P1;HPM_P2
2021/03/14 00:01:48;;;;;;;4.57;1.50;;;26.20;66.00;;;;;;4084765;28;20055;-59
2021/03/14 00:03:51;;;;;;;3.25;1.40;;;26.20;65.90;;;;;;4098704;28;20035;-52
2021/03/14 00:05:54;;;;;;;7.40;1.60;;;26.20;65.90;;;;;;4089512;28;20377;-60
2021/03/14 00:07:56;;;;;;;6.68;1.60;;;26.20;65.90;;;;;;4103944;28;20027;-53
2021/03/14 00:09:58;;;;;;;3.17;1.20;;;26.20;65.90;;;;;;4097835;28;20043;-64
2021/03/14 00:12:01;;;;;;;6.28;1.33;;;26.20;65.80;;;;;;4099145;28;20829;-56
2021/03/14 00:14:03;;;;;;;3.65;1.52;;;26.20;65.80;;;;;;4102364;28;20061;-56
2021/03/14 00:16:07;;;;;;;4.53;1.85;;;26.20;65.80;;;;;;4099506;28;20122;-54
2021/03/14 00:18:10;;;;;;;3.53;1.30;;;26.20;65.70;;;;;;4102344;28;20081;-56
2021/03/14 00:20:13;;;;;;;2.38;1.00;;;26.20;65.70;;;;;;4099418;28;20405;-54
2021/03/14 00:22:15;;;;;;;2.65;1.30;;;26.20;65.70;;;;;;4099315;28;20125;-54
2021/03/14 00:24:17;;;;;;;3.30;1.15;;;26.20;65.70;;;;;;4098727;28;20039;-58
2021/03/14 00:26:19;;;;;;;3.10;1.50;;;26.20;65.70;;;;;;4095001;28;20081;-57
2021/03/14 00:28:21;;;;;;;6.00;1.27;;;26.20;65.70;;;;;;4102303;28;20400;-52
2021/03/14 00:30:25;;;;;;;6.13;1.70;;;26.20;65.70;;;;;;4094798;28;20042;-59
2021/03/14 00:32:28;;;;;;;5.53;1.65;;;26.20;65.70;;;;;;4099694;28;20097;-58
2021/03/14 00:34:31;;;;;;;2.03;1.00;;;26.20;65.60;;;;;;4099326;28;20644;-55
2021/03/14 00:36:33;;;;;;;4.93;1.40;;;26.10;65.50;;;;;;4100839;28;20539;-57
2021/03/14 00:38:35;;;;;;;5.53;1.30;;;26.20;64.80;;;;;;4100524;28;20031;-57
2021/03/14 00:40:38;;;;;;;5.70;2.08;;;26.10;64.00;;;;;;4102118;28;20035;-57
2021/03/14 00:42:40;;;;;;;5.43;1.50;;;26.10;63.60;;;;;;4100015;28;20055;-59
2021/03/14 00:44:42;;;;;;;3.35;1.40;;;26.10;63.50;;;;;;4099191;28;20035;-61
2021/03/14 00:46:44;;;;;;;3.65;1.25;;;26.10;63.20;;;;;;4096065;28;20035;-60
2021/03/14 00:48:46;;;;;;;4.80;1.65;;;26.00;64.20;;;;;;4103443;28;20038;-60
2021/03/14 00:50:48;;;;;;;3.92;1.63;;;26.00;64.60;;;;;;4095283;28;20124;-60
2021/03/14 00:52:50;;;;;;;6.93;1.67;;;26.00;64.90;;;;;;4104319;28;20424;-59
2021/03/14 00:54:53;;;;;;;6.75;1.35;;;25.90;65.00;;;;;;4099849;28;20109;-59
2021/03/14 00:56:55;;;;;;;5.03;1.30;;;25.90;65.20;;;;;;4101579;28;20342;-62
2021/03/14 00:58:57;;;;;;;15.25;2.38;;;25.90;65.20;;;;;;4099504;28;20832;-60
2021/03/14 01:00:59;;;;;;;6.53;1.73;;;25.90;65.40;;;;;;4096621;28;20041;-60
2021/03/14 01:03:02;;;;;;;4.97;1.55;;;25.90;65.40;;;;;;4098174;28;20097;-59
2021/03/14 01:05:04;;;;;;;4.82;1.95;;;25.90;65.50;;;;;;4100970;28;20394;-60
2021/03/14 01:07:06;;;;;;;5.78;1.50;;;25.90;65.30;;;;;;4102888;28;20426;-60
2021/03/14 01:09:08;;;;;;;12.80;1.70;;;25.90;65.30;;;;;;4099687;28;20043;-61
2021/03/14 01:11:11;;;;;;;12.82;2.13;;;25.90;64.60;;;;;;4103713;28;20372;-61
2021/03/14 01:13:13;;;;;;;6.55;1.98;;;25.90;64.90;;;;;;4096405;28;20121;-61
2021/03/14 01:15:16;;;;;;;17.83;2.22;;;25.90;64.70;;;;;;4103149;28;20113;-59
2021/03/14 01:17:17;;;;;;;;;;;25.90;64.50;;;;;;4098858;28;20539;-59
2021/03/14 01:19:19;;;;;;;6.78;2.00;;;25.90;63.50;;;;;;4100442;28;19915;-61
2021/03/14 01:21:22;;;;;;;6.10;1.80;;;25.90;62.20;;;;;;4096626;28;20182;-60
2021/03/14 01:23:24;;;;;;;5.25;1.77;;;25.80;61.40;;;;;;4102040;28;20069;-59
2021/03/14 01:25:26;;;;;;;7.50;2.03;;;25.70;61.40;;;;;;4105720;28;20093;-56
2021/03/14 01:27:28;;;;;;;5.80;1.80;;;25.60;61.30;;;;;;4100008;28;20043;-58
2021/03/14 01:29:30;;;;;;;6.50;2.00;;;25.60;61.70;;;;;;4109699;28;20043;-59
2021/03/14 01:31:32;;;;;;;6.20;1.70;;;25.60;61.80;;;;;;4107451;28;20026;-60
2021/03/14 01:33:35;;;;;;;7.88;2.10;;;25.50;61.80;;;;;;4101867;28;20031;-59
2021/03/14 01:35:40;;;;;;;7.43;1.90;;;25.50;61.80;;;;;;4101592;28;20054;-57
2021/03/14 01:37:43;;;;;;;8.05;2.28;;;25.40;62.30;;;;;;4105544;28;20026;-56
2021/03/14 01:39:46;;;;;;;5.53;1.77;;;25.40;61.90;;;;;;4103889;28;20070;-52
2021/03/14 01:41:48;;;;;;;7.55;1.95;;;25.30;61.70;;;;;;4103421;28;20417;-55
2021/03/14 01:43:50;;;;;;;10.10;2.10;;;25.30;62.00;;;;;;4103797;28;20070;-61
2021/03/14 01:45:52;;;;;;;9.90;2.20;;;25.20;62.10;;;;;;4100157;28;20035;-59
2021/03/14 01:47:55;;;;;;;10.05;1.95;;;25.30;62.60;;;;;;4100354;28;20049;-59
2021/03/14 01:49:58;;;;;;;6.07;1.88;;;25.30;63.40;;;;;;4098204;28;20368;-58
2021/03/14 01:52:01;;;;;;;6.40;2.20;;;25.30;63.20;;;;;;4103871;28;20425;-59
2021/03/14 01:54:03;;;;;;;11.98;1.83;;;25.30;63.30;;;;;;4100270;28;20039;-58
2021/03/14 01:56:06;;;;;;;8.13;2.13;;;25.30;63.10;;;;;;4104432;28;20030;-60
2021/03/14 01:58:10;;;;;;;9.52;2.05;;;25.30;63.10;;;;;;4106675;28;20845;-57
2021/03/14 02:00:15;;;;;;;5.72;2.30;;;25.30;63.00;;;;;;4101363;28;20532;-61
2021/03/14 02:02:17;;;;;;;8.55;2.00;;;25.30;63.00;;;;;;4099507;28;20134;-59
2021/03/14 02:04:19;;;;;;;6.45;1.52;;;25.30;63.20;;;;;;4087840;28;20093;-60
2021/03/14 02:06:21;;;;;;;6.57;1.95;;;25.30;63.00;;;;;;4100096;28;20027;-60
2021/03/14 02:08:23;;;;;;;5.20;1.80;;;25.30;63.20;;;;;;4101162;28;20098;-57
2021/03/14 02:10:31;;;;;;;10.00;1.70;;;25.30;62.80;;;;;;4088917;28;20097;-59
2021/03/14 02:12:39;;;;;;;6.25;2.00;;;25.30;63.20;;;;;;4098111;28;20037;-62
2021/03/14 02:14:42;;;;;;;8.52;2.47;;;25.30;62.70;;;;;;4113100;28;20451;-59
2021/03/14 02:16:45;;;;;;;;;;;25.20;62.20;;;;;;4111461;28;20049;-59
2021/03/14 02:18:58;;;;;;;6.57;2.33;;;25.10;62.20;;;;;;4108666;28;19950;-60
2021/03/14 02:21:00;;;;;;;7.43;2.20;;;25.00;61.70;;;;;;4110410;28;20050;-59
2021/03/14 02:23:31;;;;;;;7.55;1.77;;;25.00;61.60;;;;;;4106113;28;20137;-58
2021/03/14 02:25:44;;;;;;;5.35;2.30;;;24.90;61.50;;;;;;4103602;28;20041;-59
2021/03/14 02:27:47;;;;;;;7.70;2.30;;;24.90;61.20;;;;;;4102517;28;20142;-57
2021/03/14 02:29:49;;;;;;;6.60;2.20;;;24.80;61.10;;;;;;4097388;28;20039;-58
2021/03/14 02:31:54;;;;;;;5.78;2.22;;;24.80;61.40;;;;;;4086422;28;20677;-59
2021/03/14 02:34:07;;;;;;;5.55;1.83;;;24.80;61.20;;;;;;4088701;28;20062;-61
2021/03/14 02:36:11;;;;;;;6.75;2.40;;;24.80;61.00;;;;;;4084478;28;20039;-60
2021/03/14 02:38:14;;;;;;;5.43;1.70;;;24.70;60.70;;;;;;4091383;28;20023;-58
2021/03/14 02:40:18;;;;;;;10.52;2.85;;;24.60;61.10;;;;;;4105566;28;20058;-57
2021/03/14 02:42:19;;;;;;;;;;;24.60;61.80;;;;;;4094105;28;20142;-55
2021/03/14 02:44:26;;;;;;;5.70;2.05;;;24.60;62.10;;;;;;4102578;28;20057;-58
2021/03/14 02:46:29;;;;;;;7.00;1.70;;;24.50;62.30;;;;;;4104123;28;20030;-58
2021/03/14 02:48:32;;;;;;;7.03;2.53;;;24.60;62.60;;;;;;4102572;28;20529;-59
2021/03/14 02:50:36;;;;;;;;;;;24.60;63.00;;;;;;4095398;28;20039;-62
2021/03/14 02:52:39;;;;;;;9.27;2.25;;;24.60;63.30;;;;;;4086300;28;20033;-60
2021/03/14 02:54:42;;;;;;;8.50;2.13;;;24.60;63.30;;;;;;4093844;28;20126;-60
2021/03/14 02:56:46;;;;;;;11.23;2.17;;;24.60;63.50;;;;;;4099655;28;20062;-60
2021/03/14 02:58:49;;;;;;;7.00;2.25;;;24.60;63.10;;;;;;4099614;28;20094;-59
2021/03/14 03:00:53;;;;;;;5.57;1.95;;;24.60;62.90;;;;;;4098022;28;20045;-62
2021/03/14 03:02:57;;;;;;;7.10;2.13;;;24.60;63.00;;;;;;4103202;28;20039;-60
2021/03/14 03:04:59;;;;;;;8.95;2.55;;;24.60;62.30;;;;;;4098877;28;20121;-60
2021/03/14 03:07:01;;;;;;;6.65;1.98;;;24.60;61.10;;;;;;4101838;28;20093;-59
2021/03/14 03:09:04;;;;;;;8.52;2.40;;;24.50;60.50;;;;;;4103593;28;20043;-56
2021/03/14 03:11:14;;;;;;;9.65;2.47;;;24.50;60.20;;;;;;4097670;28;20064;-59
2021/03/14 03:13:17;;;;;;;5.78;2.10;;;24.40;60.40;;;;;;4103577;28;20031;-59
2021/03/14 03:15:19;;;;;;;;;;;24.40;60.00;;;;;;4100612;28;20126;-59
2021/03/14 03:17:25;;;;;;;5.72;1.95;;;24.40;59.20;;;;;;4100728;28;19968;-58
2021/03/14 03:19:28;;;;;;;7.78;2.38;;;24.30;59.50;;;;;;4097700;28;20516;-65
2021/03/14 03:21:30;;;;;;;;;;;24.20;59.70;;;;;;4100616;28;20043;-60
2021/03/14 03:23:34;;;;;;;6.03;2.00;;;24.20;59.30;;;;;;4097139;28;19973;-59
2021/03/14 03:25:36;;;;;;;8.07;2.00;;;24.10;59.40;;;;;;4081021;28;20083;-58
2021/03/14 03:27:39;;;;;;;8.10;2.30;;;24.10;61.20;;;;;;4085336;28;20036;-58
2021/03/14 03:29:42;;;;;;;6.82;2.05;;;24.10;60.80;;;;;;4088483;28;20747;-59
2021/03/14 03:31:46;;;;;;;8.02;2.97;;;24.10;60.80;;;;;;4080916;28;20047;-59
2021/03/14 03:33:48;;;;;;;11.60;2.67;;;24.10;61.10;;;;;;4077536;28;20058;-59
2021/03/14 03:35:50;;;;;;;8.75;2.40;;;24.10;60.80;;;;;;4082237;28;20122;-58
2021/03/14 03:37:53;;;;;;;9.50;2.50;;;24.20;60.80;;;;;;4091964;28;20448;-58
2021/03/14 03:39:55;;;;;;;8.20;2.00;;;24.10;61.00;;;;;;4079904;28;20281;-57
2021/03/14 03:42:08;;;;;;;6.45;2.00;;;24.10;61.00;;;;;;4086243;28;20039;-58
2021/03/14 03:44:11;;;;;;;5.10;1.83;;;24.10;61.00;;;;;;4086003;28;20148;-56
2021/03/14 03:46:16;;;;;;;5.45;2.20;;;24.10;60.90;;;;;;4095891;28;20031;-57
2021/03/14 03:48:30;;;;;;;7.03;2.00;;;24.10;61.10;;;;;;4098904;28;20054;-58
2021/03/14 03:50:35;;;;;;;7.53;2.03;;;24.10;60.70;;;;;;4094173;28;20027;-59
2021/03/14 03:52:38;;;;;;;4.15;1.92;;;24.10;60.50;;;;;;4101200;28;20471;-59
2021/03/14 03:54:40;;;;;;;;;;;24.00;60.40;;;;;;4094474;28;20042;-59
2021/03/14 03:56:42;;;;;;;8.68;2.80;;;24.00;60.20;;;;;;4098506;28;19932;-58
2021/03/14 03:58:46;;;;;;;8.43;2.45;;;24.00;60.30;;;;;;4100170;28;20524;-59
2021/03/14 04:00:47;;;;;;;;;;;23.90;60.20;;;;;;4099575;28;20105;-56
2021/03/14 04:02:50;;;;;;;8.15;2.25;;;23.90;60.10;;;;;;4090892;28;20717;-61
2021/03/14 04:04:53;;;;;;;6.43;2.40;;;23.90;60.30;;;;;;4079328;28;20042;-65
2021/03/14 04:06:58;;;;;;;7.45;2.50;;;23.90;60.00;;;;;;4100835;28;20043;-66
2021/03/14 04:09:01;;;;;;;6.03;2.40;;;23.80;60.10;;;;;;4096724;28;20042;-57
2021/03/14 04:11:11;;;;;;;8.88;2.17;;;23.80;59.90;;;;;;4102241;28;20484;-62
2021/03/14 04:13:14;;;;;;;7.20;2.60;;;23.70;60.20;;;;;;4106491;28;20023;-65
2021/03/14 04:15:18;;;;;;;10.77;2.03;;;23.70;60.00;;;;;;4102415;28;20043;-63
2021/03/14 04:17:20;;;;;;;12.05;2.53;;;23.70;60.10;;;;;;4102739;28;20392;-65
2021/03/14 04:19:26;;;;;;;8.73;2.00;;;23.70;59.90;;;;;;4095438;28;20052;-62
2021/03/14 04:21:29;;;;;;;6.93;2.17;;;23.70;60.30;;;;;;4098782;28;20134;-59
2021/03/14 04:23:33;;;;;;;5.95;1.70;;;23.70;60.50;;;;;;4093637;28;20051;-57
2021/03/14 04:25:36;;;;;;;8.20;1.80;;;23.70;60.70;;;;;;4105663;28;20026;-57
2021/03/14 04:27:38;;;;;;;;;;;23.70;60.70;;;;;;4098611;28;20563;-57
2021/03/14 04:29:41;;;;;;;6.00;2.17;;;23.70;60.70;;;;;;4094800;28;19930;-59
2021/03/14 04:31:47;;;;;;;15.40;2.78;;;23.70;60.50;;;;;;4086117;28;20030;-57
2021/03/14 04:33:50;;;;;;;15.77;2.45;;;23.80;61.60;;;;;;4092186;28;20701;-60
2021/03/14 04:35:57;;;;;;;6.97;1.80;;;23.70;62.00;;;;;;4089949;28;20098;-61
2021/03/14 04:38:00;;;;;;;5.13;1.70;;;23.80;61.90;;;;;;4086375;28;20139;-62
2021/03/14 04:40:03;;;;;;;5.67;1.50;;;23.80;62.10;;;;;;4082431;28;20046;-60
2021/03/14 04:42:05;;;;;;;3.47;1.50;;;23.80;62.00;;;;;;4089312;28;20782;-60
2021/03/14 04:44:09;;;;;;;6.18;2.05;;;23.80;61.90;;;;;;4092531;28;20227;-57
2021/03/14 04:46:16;;;;;;;4.97;1.45;;;23.80;62.10;;;;;;4098723;28;20035;-58
2021/03/14 04:48:23;;;;;;;4.55;1.58;;;23.80;61.80;;;;;;4096914;28;20050;-59
2021/03/14 04:50:28;;;;;;;6.75;1.90;;;23.80;62.00;;;;;;4092774;28;20050;-58
2021/03/14 04:52:30;;;;;;;5.45;1.70;;;23.80;62.00;;;;;;4087532;28;20038;-60
2021/03/14 04:54:34;;;;;;;5.65;1.60;;;23.80;62.00;;;;;;4079124;28;20058;-57
2021/03/14 04:56:38;;;;;;;5.40;1.65;;;23.80;61.80;;;;;;4088466;28;20448;-57
2021/03/14 04:58:41;;;;;;;5.38;2.15;;;23.80;61.70;;;;;;4100761;28;20099;-59
2021/03/14 05:00:44;;;;;;;5.95;2.15;;;23.80;61.70;;;;;;4092696;28;20070;-56
2021/03/14 05:02:50;;;;;;;4.07;1.90;;;23.80;61.80;;;;;;4093488;28;20119;-59
2021/03/14 05:04:55;;;;;;;4.90;1.88;;;23.80;61.80;;;;;;4096977;28;20414;-59
2021/03/14 05:06:58;;;;;;;7.22;1.60;;;23.80;62.00;;;;;;4098297;28;20504;-58
2021/03/14 05:09:02;;;;;;;6.47;2.15;;;23.80;62.20;;;;;;4094596;28;20089;-59
2021/03/14 05:11:05;;;;;;;7.32;2.08;;;23.80;61.90;;;;;;4103236;28;20504;-59
2021/03/14 05:13:09;;;;;;;5.93;1.92;;;23.80;61.80;;;;;;4104492;28;20023;-60
2021/03/14 05:15:16;;;;;;;4.80;1.95;;;23.80;61.70;;;;;;4098467;28;20134;-59
2021/03/14 05:17:19;;;;;;;6.63;2.05;;;23.80;61.60;;;;;;4094569;28;20181;-59
2021/03/14 05:19:22;;;;;;;3.38;1.35;;;23.80;61.50;;;;;;4098976;28;20046;-57
2021/03/14 05:21:24;;;;;;;4.27;1.80;;;23.70;61.70;;;;;;4096725;28;20051;-60
2021/03/14 05:23:27;;;;;;;6.73;2.03;;;23.70;61.40;;;;;;4103015;28;20121;-61
2021/03/14 05:25:29;;;;;;;6.32;2.15;;;23.70;61.00;;;;;;4095345;28;20287;-66
2021/03/14 05:27:32;;;;;;;10.88;1.80;;;23.70;61.20;;;;;;4096668;28;20035;-63
2021/03/14 05:29:35;;;;;;;7.65;2.10;;;23.70;61.60;;;;;;4093553;28;20572;-58
2021/03/14 05:31:39;;;;;;;6.70;1.85;;;23.70;61.70;;;;;;4100931;28;20401;-62
2021/03/14 05:33:41;;;;;;;6.93;2.00;;;23.70;61.10;;;;;;4089633;28;20047;-62
2021/03/14 05:35:43;;;;;;;7.43;2.05;;;23.70;61.30;;;;;;4096095;28;20038;-63
2021/03/14 05:37:46;;;;;;;5.40;1.88;;;23.70;61.50;;;;;;4080361;28;20043;-62
2021/03/14 05:39:48;;;;;;;7.82;1.83;;;23.70;61.70;;;;;;4102522;28;20026;-65
2021/03/14 05:41:50;;;;;;;3.17;1.42;;;23.70;61.80;;;;;;4097832;28;20038;-63
2021/03/14 05:43:53;;;;;;;2.90;1.27;;;23.70;62.00;;;;;;4105110;28;20337;-64
2021/03/14 05:45:55;;;;;;;6.60;1.85;;;23.70;62.10;;;;;;4101922;28;20084;-61
2021/03/14 05:47:58;;;;;;;5.50;1.60;;;23.70;62.20;;;;;;4098261;28;20055;-60
2021/03/14 05:50:00;;;;;;;3.55;1.98;;;23.70;62.20;;;;;;4099332;28;20106;-63
2021/03/14 05:52:04;;;;;;;6.93;2.20;;;23.70;62.40;;;;;;4100483;28;20039;-63
2021/03/14 05:54:12;;;;;;;4.97;2.83;;;23.70;62.30;;;;;;4102656;28;20081;-63
2021/03/14 05:56:14;;;;;;;4.55;2.45;;;23.70;62.40;;;;;;4096006;28;20058;-64
2021/03/14 05:58:17;;;;;;;8.25;3.00;;;23.70;62.60;;;;;;4100919;28;20054;-64
2021/03/14 06:00:31;;;;;;;6.72;3.25;;;23.70;62.60;;;;;;4094327;28;20062;-62
2021/03/14 06:02:33;;;;;;;6.55;4.53;;;23.60;62.60;;;;;;4105579;28;20042;-60
2021/03/14 06:04:36;;;;;;;18.17;7.70;;;23.60;62.50;;;;;;4100930;28;20080;-61
2021/03/14 06:06:38;;;;;;;12.45;8.15;;;23.60;62.40;;;;;;4105384;28;20233;-58
2021/03/14 06:08:41;;;;;;;10.20;7.50;;;23.60;62.10;;;;;;4106917;28;20090;-54
2021/03/14 06:10:43;;;;;;;10.95;7.25;;;23.60;61.70;;;;;;4109409;28;20026;-56
2021/03/14 06:12:48;;;;;;;8.05;6.60;;;23.60;61.60;;;;;;4107364;28;20043;-59
2021/03/14 06:14:50;;;;;;;8.85;6.22;;;23.50;61.30;;;;;;4098493;28;20035;-57
2021/03/14 06:16:52;;;;;;;7.13;5.72;;;23.50;61.30;;;;;;4088156;28;20026;-58
2021/03/14 06:18:55;;;;;;;9.18;5.05;;;23.50;61.30;;;;;;4099929;28;20112;-58
2021/03/14 06:20:57;;;;;;;7.10;5.03;;;23.50;61.30;;;;;;4102347;28;20034;-59
2021/03/14 06:23:10;;;;;;;7.80;4.70;;;23.40;61.60;;;;;;4102309;28;20320;-59
2021/03/14 06:25:26;;;;;;;11.07;4.78;;;23.40;61.80;;;;;;4105710;28;20105;-62
2021/03/14 06:27:58;;;;;;;5.80;4.00;;;23.40;61.90;;;;;;4100336;28;20047;-61
2021/03/14 06:30:01;;;;;;;7.65;4.07;;;23.40;62.10;;;;;;4100501;28;20050;-61
2021/03/14 06:32:04;;;;;;;7.03;3.63;;;23.40;62.20;;;;;;4099813;28;20027;-60
2021/03/14 06:34:37;;;;;;;7.55;3.25;;;23.40;62.40;;;;;;4104620;28;20130;-63
2021/03/14 06:36:39;;;;;;;4.88;2.88;;;23.40;62.60;;;;;;4103501;28;20061;-62
2021/03/14 06:38:42;;;;;;;3.30;2.63;;;23.40;62.60;;;;;;4099074;28;20042;-53
2021/03/14 06:40:45;;;;;;;5.00;2.70;;;23.40;62.70;;;;;;4103501;28;20030;-61
2021/03/14 06:42:47;;;;;;;4.30;2.60;;;23.40;62.90;;;;;;4100434;28;20050;-55
2021/03/14 06:44:49;;;;;;;5.10;2.50;;;23.40;62.90;;;;;;4100164;28;20939;-59
2021/03/14 06:46:52;;;;;;;4.15;2.38;;;23.40;62.90;;;;;;4106494;28;20034;-61
2021/03/14 06:49:14;;;;;;;13.50;2.40;;;23.40;63.10;;;;;;4097398;28;20066;-60
2021/03/14 06:51:39;;;;;;;5.20;2.40;;;23.40;63.10;;;;;;4094510;28;20031;-61
2021/03/14 06:53:41;;;;;;;5.15;2.60;;;23.40;63.20;;;;;;4096468;28;20043;-60
2021/03/14 06:55:45;;;;;;;4.35;1.98;;;23.40;63.20;;;;;;4094014;28;20283;-60
2021/03/14 06:57:47;;;;;;;3.35;1.83;;;23.40;63.30;;;;;;4101824;28;20047;-59
2021/03/14 06:59:54;;;;;;;7.00;2.10;;;23.40;63.20;;;;;;4101054;28;20081;-60
2021/03/14 07:02:05;;;;;;;4.28;1.88;;;23.40;63.20;;;;;;4102912;28;20058;-59
2021/03/14 07:04:07;;;;;;;8.13;1.88;;;23.30;63.30;;;;;;4105262;28;20559;-59
2021/03/14 07:06:26;;;;;;;4.30;2.08;;;23.30;63.40;;;;;;4100764;28;20062;-59
2021/03/14 07:08:29;;;;;;;6.15;2.10;;;23.30;63.30;;;;;;4095585;28;20039;-54
2021/03/14 07:10:38;;;;;;;4.22;1.70;;;23.40;63.60;;;;;;4087943;28;20038;-61
2021/03/14 07:12:47;;;;;;;8.55;2.33;;;23.30;63.60;;;;;;4089148;28;20043;-60
2021/03/14 07:14:50;;;;;;;5.82;2.00;;;23.30;63.30;;;;;;4091074;28;20085;-61
2021/03/14 07:16:53;;;;;;;3.72;2.00;;;23.30;63.20;;;;;;4106259;28;20045;-65
2021/03/14 07:18:55;;;;;;;5.78;1.90;;;23.30;63.70;;;;;;4103809;28;20083;-57
2021/03/14 07:20:57;;;;;;;4.40;2.55;;;23.30;63.00;;;;;;4096031;28;20109;-62
2021/03/14 07:23:09;;;;;;;5.90;2.35;;;23.30;63.00;;;;;;4104167;28;20133;-60
2021/03/14 07:25:24;;;;;;;7.15;2.35;;;23.30;62.80;;;;;;4099376;28;20035;-61
2021/03/14 07:27:32;;;;;;;6.10;2.40;;;23.30;62.90;;;;;;4103628;28;21165;-64
2021/03/14 07:29:34;;;;;;;9.15;2.17;;;23.20;62.80;;;;;;4098683;28;20181;-62
2021/03/14 07:31:37;;;;;;;6.70;2.40;;;23.30;62.90;;;;;;4093031;28;20035;-58
2021/03/14 07:33:39;;;;;;;6.07;2.40;;;23.20;62.80;;;;;;4096086;28;20038;-64
2021/03/14 07:35:42;;;;;;;7.40;2.47;;;23.20;62.80;;;;;;4101186;28;20049;-60
2021/03/14 07:37:44;;;;;;;8.07;2.60;;;23.20;63.00;;;;;;4100773;28;20811;-65
2021/03/14 07:39:47;;;;;;;10.57;2.72;;;23.20;63.00;;;;;;4085515;28;20094;-61
2021/03/14 07:41:50;;;;;;;7.03;2.15;;;23.20;63.20;;;;;;4082199;28;20065;-63
2021/03/14 07:43:53;;;;;;;6.40;2.65;;;23.20;62.90;;;;;;4082800;28;20042;-59
2021/03/14 07:45:56;;;;;;;5.20;2.20;;;23.20;63.20;;;;;;4095041;28;20043;-59
2021/03/14 07:48:02;;;;;;;5.30;1.90;;;23.20;63.30;;;;;;4087750;28;20055;-58
2021/03/14 07:50:10;;;;;;;5.22;1.95;;;23.20;63.30;;;;;;4093143;28;20448;-58
2021/03/14 07:52:20;;;;;;;4.10;1.85;;;23.20;63.30;;;;;;4097802;28;20037;-59
2021/03/14 07:54:38;;;;;;;4.75;1.90;;;23.20;63.10;;;;;;4094714;28;20035;-60
2021/03/14 07:56:41;;;;;;;6.22;2.10;;;23.20;63.00;;;;;;4095677;28;21010;-64
2021/03/14 07:58:43;;;;;;;5.05;2.00;;;23.20;63.00;;;;;;4094375;28;20031;-63
2021/03/14 08:00:45;;;;;;;4.70;2.10;;;23.10;62.70;;;;;;4089921;28;20440;-64
2021/03/14 08:03:02;;;;;;;6.43;1.95;;;23.10;62.60;;;;;;4092135;28;20391;-61
2021/03/14 08:05:05;;;;;;;6.25;2.28;;;23.10;62.70;;;;;;4094012;28;20146;-63
2021/03/14 08:07:07;;;;;;;7.00;2.50;;;23.10;62.70;;;;;;4094422;28;20027;-63
2021/03/14 08:09:09;;;;;;;4.53;2.28;;;23.10;62.80;;;;;;4083872;28;20043;-67
2021/03/14 08:11:26;;;;;;;4.70;1.92;;;23.10;62.70;;;;;;4081867;28;20400;-61
2021/03/14 08:13:30;;;;;;;6.07;2.30;;;23.00;62.70;;;;;;4099525;28;20569;-62
2021/03/14 08:15:34;;;;;;;5.22;1.73;;;23.00;62.80;;;;;;4095517;28;20122;-67
2021/03/14 08:17:38;;;;;;;6.55;2.20;;;23.00;62.70;;;;;;4094005;28;20056;-68
2021/03/14 08:19:44;;;;;;;4.43;1.98;;;23.00;62.80;;;;;;4098273;28;20515;-61
2021/03/14 08:21:46;;;;;;;4.32;2.20;;;23.00;62.80;;;;;;4105158;28;20042;-65
2021/03/14 08:23:56;;;;;;;5.00;2.10;;;23.00;62.90;;;;;;4096988;28;20055;-69
2021/03/14 08:25:58;;;;;;;6.28;1.95;;;23.00;62.90;;;;;;4097493;28;20249;-67
2021/03/14 08:28:21;;;;;;;4.97;2.40;;;22.90;62.80;;;;;;4094184;28;20034;-60
2021/03/14 08:30:32;;;;;;;3.47;1.35;;;23.00;62.90;;;;;;4096310;28;20558;-60
2021/03/14 08:32:34;;;;;;;7.32;2.30;;;22.90;62.90;;;;;;4093957;28;20049;-58
2021/03/14 08:34:43;;;;;;;5.20;1.73;;;22.90;63.50;;;;;;4097454;28;20034;-63
2021/03/14 08:36:46;;;;;;;5.30;2.15;;;22.90;62.80;;;;;;4084460;28;20159;-63
2021/03/14 08:38:51;;;;;;;5.90;2.05;;;22.90;62.80;;;;;;4088899;28;20047;-62
2021/03/14 08:41:19;;;;;;;4.30;1.80;;;22.90;62.80;;;;;;4096457;28;20307;-67
2021/03/14 08:43:40;;;;;;;7.25;2.00;;;22.90;62.90;;;;;;4092533;28;20433;-69
2021/03/14 08:45:49;;;;;;;4.40;1.48;;;22.90;63.10;;;;;;4096434;28;20055;-67
2021/03/14 08:47:52;;;;;;;4.95;1.95;;;22.90;63.00;;;;;;4107496;28;20134;-65
2021/03/14 08:49:56;;;;;;;4.28;1.90;;;22.80;63.60;;;;;;4092138;28;20039;-66
2021/03/14 08:51:59;;;;;;;4.28;2.00;;;22.80;62.90;;;;;;4096351;28;20381;-65
2021/03/14 08:54:01;;;;;;;6.80;1.60;;;22.80;63.00;;;;;;4094465;28;20464;-66
2021/03/14 08:56:05;;;;;;;5.07;1.75;;;22.80;63.00;;;;;;4100595;28;20037;-65
2021/03/14 08:58:16;;;;;;;4.05;2.40;;;22.80;63.00;;;;;;4081578;28;20042;-61
2021/03/14 09:00:19;;;;;;;5.82;2.58;;;22.80;63.20;;;;;;4095694;28;20488;-61
2021/03/14 09:02:22;;;;;;;6.57;2.63;;;22.80;63.40;;;;;;4093524;28;20473;-63
2021/03/14 09:04:31;;;;;;;4.60;1.95;;;22.80;63.40;;;;;;4102999;28;20559;-63
2021/03/14 09:06:33;;;;;;;6.25;2.10;;;22.80;63.20;;;;;;4097796;28;20073;-61
2021/03/14 09:08:36;;;;;;;9.00;2.60;;;22.80;63.50;;;;;;4101151;28;20057;-62
2021/03/14 09:10:38;;;;;;;;;;;22.80;63.80;;;;;;4098077;28;20115;-58
2021/03/14 09:12:40;;;;;;;5.85;2.17;;;22.80;63.90;;;;;;4100443;28;19926;-60
2021/03/14 09:14:50;;;;;;;5.37;2.03;;;22.80;64.30;;;;;;4092772;28;20090;-61
2021/03/14 09:16:54;;;;;;;11.00;2.92;;;22.80;64.30;;;;;;4082323;28;20039;-61
2021/03/14 09:18:56;;;;;;;6.35;2.53;;;22.80;64.40;;;;;;4097012;28;20599;-61
2021/03/14 09:21:02;;;;;;;5.15;2.00;;;22.70;64.40;;;;;;4088720;28;20058;-73
2021/03/14 09:23:08;;;;;;;4.32;2.17;;;22.80;64.60;;;;;;4079454;28;20476;-64
2021/03/14 09:25:12;;;;;;;4.78;1.80;;;22.70;64.50;;;;;;4086270;28;20098;-62
2021/03/14 09:27:27;;;;;;;3.35;1.80;;;22.80;64.60;;;;;;4079770;28;20063;-62
2021/03/14 09:29:36;;;;;;;3.53;1.77;;;22.80;64.60;;;;;;4078957;28;20448;-64
2021/03/14 09:31:42;;;;;;;7.15;1.83;;;22.80;64.50;;;;;;4080680;28;20042;-59
2021/03/14 09:33:44;;;;;;;4.72;2.08;;;22.80;64.60;;;;;;4086045;28;20032;-64
2021/03/14 09:35:46;;;;;;;4.50;1.60;;;22.80;64.60;;;;;;4087480;28;20154;-65
2021/03/14 09:37:57;;;;;;;3.30;1.70;;;22.80;64.60;;;;;;4101586;28;20267;-66
2021/03/14 09:40:25;;;;;;;4.35;1.95;;;22.70;64.50;;;;;;4082270;28;20043;-63
2021/03/14 09:42:27;;;;;;;4.68;1.80;;;22.80;64.60;;;;;;4092775;28;20130;-59
2021/03/14 09:44:30;;;;;;;3.55;1.67;;;22.80;64.60;;;;;;4109191;28;20042;-59
2021/03/14 09:46:32;;;;;;;5.80;1.92;;;22.80;64.70;;;;;;4099453;28;20033;-67
2021/03/14 09:48:35;;;;;;;3.33;1.60;;;22.80;64.60;;;;;;4103331;28;20035;-59
2021/03/14 09:50:47;;;;;;;3.50;1.70;;;22.80;64.60;;;;;;4089380;28;20118;-63
2021/03/14 09:52:49;;;;;;;3.33;1.70;;;22.80;64.80;;;;;;4101594;28;20026;-61
2021/03/14 09:54:51;;;;;;;5.50;1.77;;;22.80;64.80;;;;;;4102460;28;20452;-62
2021/03/14 09:56:57;;;;;;;5.78;2.17;;;22.70;64.70;;;;;;4098997;28;20424;-61
2021/03/14 09:59:04;;;;;;;3.40;2.00;;;22.80;64.80;;;;;;4101292;28;20045;-62
2021/03/14 10:01:09;;;;;;;5.55;2.10;;;22.80;64.60;;;;;;4100626;28;20038;-61
2021/03/14 10:03:13;;;;;;;3.90;1.90;;;22.70;64.70;;;;;;4099685;28;20043;-64
2021/03/14 10:05:16;;;;;;;3.70;1.75;;;22.70;64.80;;;;;;4098457;28;20901;-59
2021/03/14 10:07:23;;;;;;;3.65;1.75;;;22.70;64.80;;;;;;4101509;28;20027;-61
2021/03/14 10:09:26;;;;;;;5.82;1.67;;;22.70;64.90;;;;;;4099398;28;20149;-60
2021/03/14 10:11:29;;;;;;;3.28;1.42;;;22.70;64.80;;;;;;4101839;28;20039;-61
2021/03/14 10:13:33;;;;;;;3.13;1.60;;;22.70;64.90;;;;;;4102339;28;20049;-63
2021/03/14 10:15:36;;;;;;;5.22;1.90;;;22.70;64.90;;;;;;4098033;28;20097;-63
2021/03/14 10:17:38;;;;;;;3.05;1.63;;;22.70;64.90;;;;;;4104312;28;20576;-62
2021/03/14 10:19:41;;;;;;;3.78;1.90;;;22.70;65.00;;;;;;4104429;28;20035;-67
2021/03/14 10:21:47;;;;;;;3.38;1.92;;;22.70;64.90;;;;;;4104171;28;20039;-56
2021/03/14 10:23:50;;;;;;;15.63;2.25;;;22.70;64.90;;;;;;4103119;28;20072;-68
2021/03/14 10:25:52;;;;;;;7.28;1.92;;;22.70;65.30;;;;;;4102476;28;20126;-68
2021/03/14 10:28:16;;;;;;;4.93;1.88;;;22.70;65.00;;;;;;4106414;28;20133;-65
2021/03/14 10:30:19;;;;;;;;;;;22.70;65.20;;;;;;4102325;28;20103;-62
2021/03/14 10:32:27;;;;;;;11.52;2.25;;;22.70;65.20;;;;;;4102072;28;19949;-62
2021/03/14 10:34:29;;;;;;;7.97;2.08;;;22.70;65.30;;;;;;4105075;28;20407;-63
2021/03/14 10:36:36;;;;;;;4.85;1.90;;;22.70;65.20;;;;;;4101815;28;21236;-65
2021/03/14 10:38:42;;;;;;;6.93;1.77;;;22.70;65.10;;;;;;4104582;28;20045;-66
2021/03/14 10:40:45;;;;;;;7.10;1.85;;;22.70;65.10;;;;;;4106758;28;20065;-63
2021/03/14 10:42:49;;;;;;;6.32;1.98;;;22.70;65.20;;;;;;4103482;28;20054;-67
2021/03/14 10:45:00;;;;;;;7.45;2.15;;;22.80;65.20;;;;;;4100855;28;20042;-64
2021/03/14 10:47:15;;;;;;;6.25;1.88;;;22.70;65.20;;;;;;4097295;28;20523;-63
2021/03/14 10:49:25;;;;;;;4.30;2.03;;;22.70;65.20;;;;;;4103718;28;20023;-62
2021/03/14 10:51:32;;;;;;;5.53;1.73;;;22.80;65.20;;;;;;4103007;28;20050;-63